Time;durP1;ratioP1;P1;durP2;ratioP2;P2;SDS_P1;SDS_P2;PMS_P1;PMS_P2;Temp;Humidity;BMP_temperature;BMP_pressure;BME280_temperature;BME280_humidity;BME280_pressure;Samples;Min_cycle;Max_cycle;Signal;HPM_P1;HPM_P2
2023/06/10 00:00:12;;;;;;;6.17;3.30;;;14.40;99.90;;;;;;5031087;28;20542;-54
2023/06/10 00:02:40;;;;;;;9.93;3.37;;;14.40;99.90;;;;;;5040973;28;20282;-55
2023/06/10 00:05:09;;;;;;;10.47;3.83;;;14.30;99.90;;;;;;5037253;28;20221;-53
2023/06/10 00:07:37;;;;;;;5.77;3.30;;;14.30;99.90;;;;;;5032573;28;20944;-56
2023/06/10 00:10:05;;;;;;;3.43;2.97;;;14.30;99.90;;;;;;5042932;28;20191;-55
2023/06/10 00:12:38;;;;;;;4.83;3.40;;;14.20;99.90;;;;;;5011821;28;20203;-56
2023/06/10 00:15:05;;;;;;;3.10;2.80;;;14.20;99.90;;;;;;5039487;28;20859;-56
2023/06/10 00:17:32;;;;;;;6.03;3.40;;;14.20;99.90;;;;;;5031291;28;20280;-55
2023/06/10 00:19:59;;;;;;;5.60;3.53;;;14.20;99.90;;;;;;5045247;28;20325;-56
2023/06/10 00:22:29;;;;;;;5.40;3.47;;;14.20;99.90;;;;;;5043050;28;20199;-53
2023/06/10 00:24:57;;;;;;;7.73;2.80;;;14.10;99.90;;;;;;5047082;28;20298;-51
2023/06/10 00:27:30;;;;;;;4.47;2.90;;;14.10;99.90;;;;;;5016940;28;20234;-54
2023/06/10 00:29:57;;;;;;;4.07;2.53;;;14.00;99.90;;;;;;5034013;28;20199;-51
2023/06/10 00:32:24;;;;;;;4.67;2.97;;;14.00;99.90;;;;;;5038888;28;20283;-53
2023/06/10 00:34:51;;;;;;;7.87;3.20;;;14.00;99.90;;;;;;5046711;28;20199;-55
2023/06/10 00:37:18;;;;;;;5.33;2.70;;;13.90;99.90;;;;;;5042973;28;20690;-54
2023/06/10 00:39:45;;;;;;;6.93;3.10;;;13.90;99.90;;;;;;5043084;28;20692;-51
2023/06/10 00:42:13;;;;;;;4.70;3.10;;;13.90;99.90;;;;;;5033443;28;20203;-53
2023/06/10 00:44:40;;;;;;;5.93;3.10;;;13.90;99.90;;;;;;5020092;28;20366;-55
2023/06/10 00:47:08;;;;;;;5.27;2.63;;;13.90;99.90;;;;;;5036105;28;20670;-52
2023/06/10 00:49:35;;;;;;;6.13;2.63;;;13.90;99.90;;;;;;5043262;28;20218;-52
2023/06/10 00:52:04;;;;;;;4.27;2.43;;;13.90;99.90;;;;;;5043139;28;20195;-53
2023/06/10 00:54:31;;;;;;;5.03;3.10;;;13.90;99.90;;;;;;5040137;28;20175;-50
2023/06/10 00:57:02;;;;;;;4.30;2.90;;;13.90;99.90;;;;;;5039311;28;20657;-52
2023/06/10 00:59:31;;;;;;;5.13;3.20;;;13.90;99.90;;;;;;5019991;28;20207;-50
2023/06/10 01:01:58;;;;;;;4.90;2.93;;;13.80;99.90;;;;;;5035931;28;20195;-54
2023/06/10 01:04:24;;;;;;;5.17;2.80;;;13.70;99.90;;;;;;5034701;28;20203;-54
2023/06/10 01:06:57;;;;;;;5.10;2.60;;;13.70;99.90;;;;;;5044936;28;20721;-54
2023/06/10 01:09:31;;;;;;;5.37;3.13;;;13.70;99.90;;;;;;5040633;28;20252;-55
2023/06/10 01:12:03;;;;;;;6.23;3.10;;;13.70;99.90;;;;;;5034566;28;20199;-54
2023/06/10 01:14:32;;;;;;;6.17;2.97;;;13.60;99.90;;;;;;5020654;28;20202;-51
2023/06/10 01:17:01;;;;;;;6.13;4.00;;;13.60;99.90;;;;;;5033756;28;20219;-51
2023/06/10 01:19:30;;;;;;;3.07;2.70;;;13.60;99.90;;;;;;5040416;28;20283;-53
2023/06/10 01:22:00;;;;;;;6.60;3.17;;;13.50;99.90;;;;;;5044710;28;20201;-56
2023/06/10 01:24:28;;;;;;;7.07;2.93;;;13.50;99.90;;;;;;5041798;28;20219;-52
2023/06/10 01:26:55;;;;;;;5.33;2.60;;;;;;;;;;5033378;28;20206;-54
2023/06/10 01:29:40;;;;;;;6.10;2.80;;;13.40;99.90;;;;;;5034897;28;20226;-56
2023/06/10 01:32:12;;;;;;;5.10;2.90;;;13.40;99.90;;;;;;5006850;28;20793;-53
2023/06/10 01:34:43;;;;;;;5.27;2.37;;;13.30;99.90;;;;;;5028231;28;20192;-55
2023/06/10 01:37:14;;;;;;;3.67;2.80;;;13.30;99.90;;;;;;5041944;28;20264;-56
2023/06/10 01:39:41;;;;;;;4.33;3.17;;;13.30;99.90;;;;;;5040681;28;20202;-52
2023/06/10 01:42:11;;;;;;;3.97;2.67;;;13.20;99.90;;;;;;5030912;28;23012;-55
2023/06/10 01:44:39;;;;;;;6.17;2.57;;;13.20;99.90;;;;;;5044114;28;20253;-53
2023/06/10 01:47:08;;;;;;;5.73;2.60;;;13.20;99.90;;;;;;5019304;28;22202;-52
2023/06/10 01:49:35;;;;;;;3.63;2.73;;;13.20;99.90;;;;;;5037883;28;20208;-55
2023/06/10 01:52:02;;;;;;;4.93;2.93;;;13.20;99.90;;;;;;5035113;28;20195;-53
2023/06/10 01:54:31;;;;;;;5.20;2.60;;;13.10;99.90;;;;;;5042092;28;20645;-55
2023/06/10 01:56:57;;;;;;;4.47;2.33;;;13.20;99.90;;;;;;5038251;28;20191;-51
2023/06/10 01:59:24;;;;;;;5.60;2.83;;;13.20;99.90;;;;;;5039367;28;20849;-55
2023/06/10 02:01:51;;;;;;;6.10;2.67;;;13.20;99.90;;;;;;5034279;28;20561;-53
2023/06/10 02:04:18;;;;;;;6.40;2.57;;;13.10;99.90;;;;;;5017444;28;20211;-53
2023/06/10 02:06:46;;;;;;;5.30;3.03;;;13.10;99.90;;;;;;5040175;28;20196;-55
2023/06/10 02:09:12;;;;;;;3.77;2.53;;;13.00;99.90;;;;;;5039940;28;20841;-56
2023/06/10 02:11:41;;;;;;;5.07;2.60;;;13.00;99.90;;;;;;5042179;28;20195;-52
2023/06/10 02:14:07;;;;;;;3.33;2.40;;;13.00;99.90;;;;;;5033505;28;20207;-49
2023/06/10 02:16:35;;;;;;;4.23;2.50;;;12.90;99.90;;;;;;5038177;28;20214;-54
2023/06/10 02:19:05;;;;;;;4.10;2.33;;;12.90;99.90;;;;;;5014169;28;20227;-53
2023/06/10 02:21:32;;;;;;;7.33;2.67;;;12.90;99.90;;;;;;5035334;28;20219;-55
2023/06/10 02:23:59;;;;;;;4.27;2.37;;;12.90;99.90;;;;;;5041288;28;20345;-50
2023/06/10 02:26:26;;;;;;;5.50;2.20;;;12.90;99.90;;;;;;5032448;28;20217;-50
2023/06/10 02:28:55;;;;;;;3.40;2.17;;;12.90;99.90;;;;;;5029996;28;20235;-51
2023/06/10 02:31:24;;;;;;;4.20;1.90;;;12.90;99.90;;;;;;5042457;28;20739;-53
2023/06/10 02:33:50;;;;;;;7.57;3.00;;;12.90;99.90;;;;;;5017198;28;20204;-51
2023/06/10 02:36:18;;;;;;;4.63;2.30;;;12.90;99.90;;;;;;5035532;28;20563;-52
2023/06/10 02:38:45;;;;;;;5.90;2.47;;;12.90;99.90;;;;;;5039807;28;20741;-51
2023/06/10 02:41:12;;;;;;;5.83;3.17;;;10.30;99.90;;;;;;5037321;28;20242;-52
2023/06/10 02:43:39;;;;;;;6.93;2.67;;;12.80;99.90;;;;;;5033629;28;21201;-55
2023/06/10 02:46:07;;;;;;;3.83;2.37;;;12.80;99.90;;;;;;5043312;28;20218;-55
2023/06/10 02:48:41;;;;;;;6.33;2.70;;;12.70;99.90;;;;;;5018730;28;20288;-54
2023/06/10 02:51:08;;;;;;;5.50;2.50;;;12.70;99.90;;;;;;5032031;28;20207;-54
2023/06/10 02:53:39;;;;;;;4.37;2.80;;;12.70;99.90;;;;;;5035024;28;21015;-49
2023/06/10 02:56:11;;;;;;;5.97;2.97;;;12.70;99.90;;;;;;5042197;28;20187;-54
2023/06/10 02:58:38;;;;;;;5.57;2.27;;;12.70;99.90;;;;;;5039312;28;20199;-55
2023/06/10 03:01:09;;;;;;;7.37;3.17;;;12.60;99.90;;;;;;5033395;28;20203;-50
2023/06/10 03:03:43;;;;;;;4.57;2.80;;;12.70;99.90;;;;;;5015789;28;21124;-52
2023/06/10 03:06:12;;;;;;;5.57;2.90;;;12.60;99.90;;;;;;5027838;28;20230;-52
2023/06/10 03:08:40;;;;;;;4.53;2.87;;;12.60;99.90;;;;;;5039837;28;20199;-55
2023/06/10 03:11:11;;;;;;;3.87;2.93;;;12.60;99.90;;;;;;5038590;28;20700;-51
2023/06/10 03:13:40;;;;;;;4.67;2.63;;;12.60;99.90;;;;;;5038189;28;20192;-54
2023/06/10 03:16:12;;;;;;;4.93;3.33;;;12.60;99.90;;;;;;5029106;28;20214;-52
2023/06/10 03:18:39;;;;;;;5.30;2.87;;;12.60;99.90;;;;;;5040485;28;20230;-54
2023/06/10 03:21:06;;;;;;;4.77;2.73;;;12.60;99.90;;;;;;5019287;28;20670;-53
2023/06/10 03:23:33;;;;;;;4.17;2.33;;;12.50;99.90;;;;;;5029446;28;20202;-54
2023/06/10 03:26:01;;;;;;;5.10;2.60;;;12.50;99.90;;;;;;5043471;28;20294;-50
2023/06/10 03:28:30;;;;;;;4.27;2.77;;;12.50;99.90;;;;;;5038628;28;20213;-55
2023/06/10 03:30:57;;;;;;;5.57;3.00;;;12.50;99.90;;;;;;5035609;28;20743;-51
2023/06/10 03:33:27;;;;;;;5.97;2.40;;;12.50;99.90;;;;;;5035418;28;20561;-50
2023/06/10 03:35:54;;;;;;;8.80;3.00;;;12.50;99.90;;;;;;5034292;28;20568;-54
2023/06/10 03:38:21;;;;;;;3.63;2.70;;;12.50;99.90;;;;;;5031076;28;20585;-51
2023/06/10 03:40:48;;;;;;;4.83;2.80;;;12.60;99.90;;;;;;5034592;28;20187;-54
2023/06/10 03:43:15;;;;;;;3.47;2.50;;;12.50;99.90;;;;;;5040651;28;20566;-51
2023/06/10 03:45:43;;;;;;;3.87;2.93;;;12.60;99.90;;;;;;5039848;28;20932;-54
2023/06/10 03:48:10;;;;;;;5.23;2.57;;;12.60;99.90;;;;;;5035082;28;20227;-51
2023/06/10 03:50:50;;;;;;;3.00;2.30;;;12.60;99.90;;;;;;5038398;28;20727;-53
2023/06/10 03:53:17;;;;;;;4.07;2.50;;;12.60;99.90;;;;;;5010083;28;20380;-54
2023/06/10 03:55:45;;;;;;;6.77;2.40;;;12.60;99.90;;;;;;5031999;28;20920;-52
2023/06/10 03:58:14;;;;;;;4.13;2.10;;;12.70;99.90;;;;;;5040819;28;20257;-51
2023/06/10 04:00:43;;;;;;;4.90;2.27;;;12.70;99.90;;;;;;5040100;28;20191;-52
2023/06/10 04:03:14;;;;;;;2.73;2.13;;;12.60;99.90;;;;;;5033379;28;20234;-53
2023/06/10 04:05:43;;;;;;;5.57;2.33;;;12.60;99.90;;;;;;5038192;28;20203;-55
2023/06/10 04:08:11;;;;;;;6.57;2.50;;;12.70;99.90;;;;;;5014298;28;20310;-52
2023/06/10 04:10:38;;;;;;;2.30;2.00;;;12.70;99.90;;;;;;5037464;28;20187;-55
2023/06/10 04:13:04;;;;;;;4.77;2.17;;;12.80;99.90;;;;;;5041466;28;20257;-52
2023/06/10 04:15:38;;;;;;;3.67;2.30;;;12.80;99.90;;;;;;5032203;28;20934;-55
2023/06/10 04:18:09;;;;;;;7.60;2.30;;;12.80;99.90;;;;;;5034961;28;20258;-53
2023/06/10 04:20:36;;;;;;;6.50;2.30;;;12.80;99.90;;;;;;5038309;28;20183;-50
2023/06/10 04:23:03;;;;;;;4.23;2.50;;;12.80;99.90;;;;;;5021647;28;20569;-49
2023/06/10 04:25:32;;;;;;;4.37;2.20;;;12.90;99.90;;;;;;5029756;28;20235;-51
2023/06/10 04:27:59;;;;;;;6.53;2.27;;;13.00;99.90;;;;;;5033013;28;20238;-47
2023/06/10 04:30:26;;;;;;;5.73;2.67;;;13.00;99.90;;;;;;5038301;28;20211;-51
2023/06/10 04:32:54;;;;;;;7.37;2.43;;;12.90;99.90;;;;;;5040533;28;20195;-54
2023/06/10 04:35:21;;;;;;;9.17;2.87;;;13.00;99.90;;;;;;5034270;28;20199;-51
2023/06/10 04:37:49;;;;;;;4.50;2.13;;;13.00;99.90;;;;;;5039327;28;20226;-54
2023/06/10 04:40:17;;;;;;;4.37;2.40;;;13.10;99.90;;;;;;5000610;28;20268;-51
2023/06/10 04:42:45;;;;;;;7.97;2.57;;;13.20;99.90;;;;;;5036721;28;20188;-53
2023/06/10 04:45:13;;;;;;;5.70;2.30;;;13.30;99.90;;;;;;5040037;28;20290;-52
2023/06/10 04:47:40;;;;;;;7.50;2.23;;;13.40;99.90;;;;;;5038484;28;20218;-54
2023/06/10 04:50:08;;;;;;;12.40;2.33;;;13.50;99.90;;;;;;5031888;28;20202;-53
2023/06/10 04:52:35;;;;;;;7.50;2.43;;;;;;;;;;5035644;28;20249;-56
2023/06/10 04:55:02;;;;;;;6.90;2.20;;;13.70;99.90;;;;;;5020687;28;20245;-56
2023/06/10 04:57:29;;;;;;;6.97;2.33;;;13.80;99.90;;;;;;5027175;28;20914;-56
2023/06/10 04:59:57;;;;;;;6.27;3.00;;;13.90;99.90;;;;;;5039325;28;20191;-49
2023/06/10 05:02:24;;;;;;;8.20;2.50;;;14.00;99.90;;;;;;5036890;28;20329;-53
2023/06/10 05:04:51;;;;;;;5.20;2.37;;;14.10;99.90;;;;;;5031193;28;20195;-50
2023/06/10 05:07:18;;;;;;;6.27;2.33;;;14.10;99.90;;;;;;5042970;28;20227;-51
2023/06/10 05:09:45;;;;;;;5.50;2.50;;;14.20;99.90;;;;;;5024131;28;20238;-51
2023/06/10 05:12:11;;;;;;;5.50;2.20;;;14.30;99.90;;;;;;5040103;28;20613;-52
2023/06/10 05:14:38;;;;;;;8.63;2.33;;;14.30;99.90;;;;;;5037601;28;20191;-51
2023/06/10 05:17:07;;;;;;;5.93;2.37;;;14.40;99.90;;;;;;5036700;28;20272;-50
2023/06/10 05:19:35;;;;;;;6.70;2.33;;;14.50;99.90;;;;;;5040401;28;20183;-51
2023/06/10 05:22:02;;;;;;;8.53;2.37;;;14.50;99.90;;;;;;5032783;28;20211;-50
2023/06/10 05:24:29;;;;;;;5.07;1.97;;;14.60;99.90;;;;;;5022145;28;20203;-56
2023/06/10 05:26:56;;;;;;;11.50;3.00;;;14.60;99.90;;;;;;5036146;28;20223;-51
2023/06/10 05:29:23;;;;;;;5.37;2.07;;;14.70;99.90;;;;;;5038435;28;20188;-48
2023/06/10 05:31:50;;;;;;;8.20;2.20;;;14.70;99.90;;;;;;5040816;28;20223;-51
2023/06/10 05:34:18;;;;;;;4.37;1.90;;;14.70;99.90;;;;;;5042862;28;20253;-52
2023/06/10 05:36:45;;;;;;;6.27;2.20;;;14.80;99.90;;;;;;5028298;28;20346;-54
2023/06/10 05:39:12;;;;;;;4.27;1.73;;;14.90;99.90;;;;;;5034409;28;20937;-52
2023/06/10 05:41:39;;;;;;;2.57;1.33;;;14.90;99.90;;;;;;5014494;28;20720;-52
2023/06/10 05:44:05;;;;;;;7.80;2.40;;;15.00;99.90;;;;;;5025868;28;20192;-55
2023/06/10 05:46:32;;;;;;;4.43;1.73;;;15.10;99.90;;;;;;5044251;28;20239;-53
2023/06/10 05:48:59;;;;;;;8.87;2.80;;;15.10;99.90;;;;;;5022872;28;20674;-53
2023/06/10 05:51:28;;;;;;;6.90;2.23;;;15.20;99.90;;;;;;5026044;28;20602;-51
2023/06/10 05:53:55;;;;;;;4.90;1.80;;;15.20;99.90;;;;;;5032378;28;20203;-49
2023/06/10 05:56:22;;;;;;;4.87;1.60;;;15.20;99.90;;;;;;5022117;28;20195;-49
2023/06/10 05:58:49;;;;;;;3.73;1.40;;;15.30;99.90;;;;;;5028572;28;20308;-49
2023/06/10 06:01:16;;;;;;;5.50;1.50;;;15.40;99.90;;;;;;5041058;28;20195;-52
2023/06/10 06:03:42;;;;;;;4.27;1.77;;;15.50;99.90;;;;;;5031072;28;20222;-55
2023/06/10 06:06:09;;;;;;;5.23;1.90;;;15.50;99.90;;;;;;5041577;28;20210;-53
2023/06/10 06:08:38;;;;;;;6.33;2.23;;;15.60;99.90;;;;;;5037852;28;20227;-54
2023/06/10 06:11:04;;;;;;;5.07;1.77;;;15.60;99.90;;;;;;5016834;28;20211;-52
2023/06/10 06:13:31;;;;;;;6.00;1.57;;;15.70;99.90;;;;;;5032689;28;20196;-52
2023/06/10 06:15:58;;;;;;;4.90;1.60;;;15.80;99.90;;;;;;5030243;28;20234;-50
2023/06/10 06:18:25;;;;;;;5.63;1.43;;;15.90;99.90;;;;;;5043601;28;20603;-54
2023/06/10 06:20:52;;;;;;;4.57;2.00;;;16.00;99.90;;;;;;5035333;28;20238;-52
2023/06/10 06:23:19;;;;;;;5.70;1.77;;;16.00;99.90;;;;;;5037954;28;20294;-51
2023/06/10 06:25:47;;;;;;;3.80;1.80;;;16.00;99.90;;;;;;5041627;28;20649;-49
2023/06/10 06:28:14;;;;;;;4.33;1.60;;;16.10;99.90;;;;;;5012635;28;21412;-50
2023/06/10 06:30:40;;;;;;;5.13;1.70;;;16.20;99.90;;;;;;5036498;28;20284;-50
2023/06/10 06:33:07;;;;;;;2.63;1.60;;;16.20;99.90;;;;;;5040478;28;20206;-55
2023/06/10 06:35:35;;;;;;;5.03;1.90;;;16.30;99.90;;;;;;5037151;28;20191;-53
2023/06/10 06:38:03;;;;;;;3.70;1.57;;;16.40;99.90;;;;;;5027984;28;20605;-52
2023/06/10 06:40:30;;;;;;;2.57;1.60;;;16.50;99.90;;;;;;5035616;28;20669;-50
2023/06/10 06:42:59;;;;;;;5.33;1.90;;;16.50;99.90;;;;;;5024070;28;20206;-49
2023/06/10 06:45:37;;;;;;;6.33;1.90;;;16.50;99.90;;;;;;5024193;28;20233;-48
2023/06/10 06:48:05;;;;;;;6.17;1.80;;;16.60;99.90;;;;;;5033680;28;20215;-55
2023/06/10 06:50:32;;;;;;;5.67;1.97;;;16.70;99.90;;;;;;5031372;28;20199;-49
2023/06/10 06:52:59;;;;;;;4.93;2.53;;;16.70;99.90;;;;;;5033285;28;20750;-51
2023/06/10 06:55:26;;;;;;;4.57;2.20;;;16.80;99.90;;;;;;5034670;28;20210;-53
2023/06/10 06:57:53;;;;;;;2.90;1.40;;;16.90;99.90;;;;;;5043703;28;20240;-54
2023/06/10 07:00:21;;;;;;;4.57;2.13;;;16.90;99.90;;;;;;5021004;28;21179;-52
2023/06/10 07:02:48;;;;;;;6.07;2.22;;;17.10;99.90;;;;;;5023933;28;20435;-52
2023/06/10 07:05:15;;;;;;;3.88;2.10;;;17.30;99.90;;;;;;5033709;28;20432;-52
2023/06/10 07:07:42;;;;;;;5.73;1.77;;;17.50;99.90;;;;;;5041271;28;20451;-55
2023/06/10 07:10:09;;;;;;;4.25;2.10;;;17.60;99.90;;;;;;5018588;28;20491;-52
2023/06/10 07:12:36;;;;;;;6.50;1.70;;;17.70;99.90;;;;;;5043561;28;20191;-51
2023/06/10 07:15:03;;;;;;;3.87;1.70;;;17.60;99.90;;;;;;5003685;28;20849;-55
2023/06/10 07:17:31;;;;;;;4.22;2.20;;;17.60;99.90;;;;;;5033601;28;20436;-55
2023/06/10 07:19:59;;;;;;;5.57;2.00;;;17.90;99.90;;;;;;5039809;28;20437;-54
2023/06/10 07:22:26;;;;;;;3.92;1.90;;;18.20;99.90;;;;;;5036728;28;20445;-55
2023/06/10 07:24:54;;;;;;;6.05;2.10;;;18.30;99.90;;;;;;5028886;28;20454;-54
2023/06/10 07:27:21;;;;;;;4.15;2.15;;;18.50;99.90;;;;;;5022802;28;20498;-53
2023/06/10 07:29:48;;;;;;;4.03;1.80;;;18.50;99.90;;;;;;5033214;28;20222;-52
2023/06/10 07:32:15;;;;;;;7.07;2.27;;;18.50;99.90;;;;;;5024395;28;20251;-54
2023/06/10 07:34:43;;;;;;;4.87;1.90;;;18.50;99.90;;;;;;5038619;28;20199;-54
2023/06/10 07:37:10;;;;;;;4.83;2.30;;;18.40;99.90;;;;;;5031223;28;20215;-51
2023/06/10 07:39:36;;;;;;;5.93;1.83;;;18.40;99.90;;;;;;5038752;28;20724;-54
2023/06/10 07:42:04;;;;;;;5.37;2.33;;;18.30;99.90;;;;;;5017870;28;20269;-53
2023/06/10 07:44:31;;;;;;;9.17;2.20;;;18.40;99.90;;;;;;5041750;28;20200;-52
2023/06/10 07:46:58;;;;;;;4.17;1.87;;;18.50;99.90;;;;;;5018989;28;20223;-52
2023/06/10 07:49:25;;;;;;;10.00;2.43;;;18.60;99.90;;;;;;5030507;28;20340;-53
2023/06/10 07:51:54;;;;;;;5.13;2.00;;;18.60;99.90;;;;;;5034670;28;20235;-49
2023/06/10 07:54:21;;;;;;;4.70;1.90;;;18.70;99.90;;;;;;5042000;28;20241;-53
2023/06/10 07:56:48;;;;;;;5.90;1.90;;;18.70;99.90;;;;;;5023880;28;20227;-51
2023/06/10 07:59:15;;;;;;;7.03;2.03;;;18.70;99.90;;;;;;5030235;28;20238;-55
2023/06/10 08:01:42;;;;;;;3.77;2.17;;;18.70;99.90;;;;;;5019324;28;20207;-52
2023/06/10 08:04:09;;;;;;;4.77;1.93;;;18.70;99.90;;;;;;5044685;28;20188;-51
2023/06/10 08:06:37;;;;;;;4.70;1.90;;;18.70;99.90;;;;;;5032477;28;20211;-50
2023/06/10 08:09:05;;;;;;;8.23;1.97;;;18.80;99.90;;;;;;5040383;28;20215;-52
2023/06/10 08:11:32;;;;;;;6.50;2.40;;;18.90;99.90;;;;;;5034473;28;20230;-51
2023/06/10 08:13:59;;;;;;;5.33;2.20;;;19.10;99.90;;;;;;5040378;28;20219;-52
2023/06/10 08:16:26;;;;;;;5.13;2.20;;;19.20;99.90;;;;;;5040615;28;20196;-51
2023/06/10 08:18:53;;;;;;;5.57;2.13;;;19.30;99.90;;;;;;5022484;28;20705;-50
2023/06/10 08:21:19;;;;;;;5.17;2.00;;;19.30;99.90;;;;;;5026396;28;20227;-51
2023/06/10 08:23:46;;;;;;;3.73;1.90;;;19.30;99.90;;;;;;5043194;28;20613;-50
2023/06/10 08:26:14;;;;;;;4.30;1.83;;;19.40;99.90;;;;;;5033430;28;20203;-52
2023/06/10 08:28:41;;;;;;;5.13;2.40;;;19.60;99.90;;;;;;5026197;28;20222;-51
2023/06/10 08:31:08;;;;;;;7.90;1.90;;;19.70;99.90;;;;;;5040499;28;20909;-54
2023/06/10 08:33:35;;;;;;;6.63;2.40;;;19.90;99.90;;;;;;5025938;28;20227;-52
2023/06/10 08:36:02;;;;;;;5.57;2.30;;;20.00;99.90;;;;;;5027050;28;20596;-48
2023/06/10 08:38:29;;;;;;;8.33;2.00;;;20.10;99.90;;;;;;5026960;28;20284;-54
2023/06/10 08:40:59;;;;;;;3.80;2.23;;;20.10;99.90;;;;;;5044408;28;20618;-54
2023/06/10 08:43:33;;;;;;;6.67;2.30;;;20.10;99.90;;;;;;5031568;28;20253;-53
2023/06/10 08:46:01;;;;;;;6.20;2.37;;;20.20;99.90;;;;;;5045765;28;20203;-54
2023/06/10 08:48:31;;;;;;;7.37;2.47;;;20.40;99.90;;;;;;5023577;28;20223;-54
2023/06/10 08:50:59;;;;;;;3.47;1.87;;;20.40;99.90;;;;;;5012364;28;20898;-53
2023/06/10 08:53:28;;;;;;;4.70;2.40;;;20.60;99.90;;;;;;5027380;28;20207;-53
2023/06/10 08:56:01;;;;;;;5.37;2.30;;;20.70;99.90;;;;;;5032856;28;20231;-51
2023/06/10 08:58:30;;;;;;;4.37;2.27;;;20.80;99.90;;;;;;5038233;28;20699;-48
2023/06/10 09:00:57;;;;;;;4.90;2.47;;;20.80;99.90;;;;;;5033380;28;20207;-51
2023/06/10 09:03:25;;;;;;;4.77;2.33;;;20.90;99.90;;;;;;5018080;28;20679;-54
2023/06/10 09:05:52;;;;;;;4.87;2.30;;;20.90;99.90;;;;;;5031591;28;20199;-54
2023/06/10 09:08:19;;;;;;;4.47;2.57;;;21.00;99.90;;;;;;5033547;28;20649;-51
2023/06/10 09:10:46;;;;;;;5.40;2.70;;;21.00;99.90;;;;;;5039252;28;20230;-53
2023/06/10 09:13:15;;;;;;;6.77;2.90;;;21.10;99.90;;;;;;5041630;28;20191;-50
2023/06/10 09:15:44;;;;;;;6.17;2.53;;;21.20;99.90;;;;;;5036321;28;20294;-52
2023/06/10 09:18:11;;;;;;;5.87;2.37;;;21.20;99.90;;;;;;5024570;28;20234;-50
2023/06/10 09:20:40;;;;;;;4.03;2.17;;;21.20;99.90;;;;;;5047636;28;20665;-52
2023/06/10 09:23:07;;;;;;;7.07;2.57;;;21.10;99.90;;;;;;5031827;28;20203;-52
2023/06/10 09:25:39;;;;;;;5.67;2.60;;;21.20;99.90;;;;;;5034951;28;20754;-52
2023/06/10 09:28:13;;;;;;;8.07;2.90;;;21.20;99.90;;;;;;5041114;28;20316;-49
2023/06/10 09:30:40;;;;;;;5.87;2.30;;;21.20;99.90;;;;;;5039887;28;20623;-52
2023/06/10 09:33:14;;;;;;;5.77;2.70;;;21.40;99.90;;;;;;5036087;28;20911;-52
2023/06/10 09:35:46;;;;;;;5.87;2.40;;;21.50;99.90;;;;;;5022495;28;20207;-51
2023/06/10 09:38:15;;;;;;;4.60;2.40;;;21.60;99.90;;;;;;5029238;28;20227;-50
2023/06/10 09:40:51;;;;;;;4.73;2.30;;;21.80;99.90;;;;;;5028201;28;20333;-51
2023/06/10 09:43:18;;;;;;;8.60;2.90;;;21.80;99.90;;;;;;5043762;28;20198;-53
2023/06/10 09:45:44;;;;;;;5.53;2.60;;;21.80;99.90;;;;;;5032621;28;21014;-54
2023/06/10 09:48:13;;;;;;;4.00;2.60;;;21.90;99.90;;;;;;5042274;28;20227;-55
2023/06/10 09:50:43;;;;;;;6.40;2.47;;;21.90;99.90;;;;;;5017685;28;20218;-53
2023/06/10 09:53:10;;;;;;;7.70;3.20;;;21.90;99.90;;;;;;5041416;28;20928;-53
2023/06/10 09:55:39;;;;;;;6.70;2.70;;;21.90;99.90;;;;;;5032030;28;20192;-52
2023/06/10 09:58:06;;;;;;;4.43;2.50;;;22.10;99.90;;;;;;5044425;28;20219;-55
2023/06/10 10:00:33;;;;;;;6.57;2.60;;;22.10;99.90;;;;;;5025108;28;20230;-51
2023/06/10 10:03:01;;;;;;;5.07;2.80;;;22.10;99.90;;;;;;5040269;28;20249;-55
2023/06/10 10:05:30;;;;;;;6.27;2.60;;;22.10;99.90;;;;;;5005326;28;20214;-53
2023/06/10 10:07:57;;;;;;;7.37;2.70;;;22.10;99.90;;;;;;5036114;28;20233;-55
2023/06/10 10:10:24;;;;;;;7.67;2.97;;;22.20;99.90;;;;;;5030724;28;20304;-49
2023/06/10 10:12:56;;;;;;;6.47;2.80;;;22.20;99.90;;;;;;5042975;28;20237;-52
2023/06/10 10:15:26;;;;;;;6.33;2.77;;;22.30;99.90;;;;;;5031306;28;20210;-49
2023/06/10 10:17:56;;;;;;;6.33;3.03;;;22.20;99.90;;;;;;5043704;28;20214;-53
2023/06/10 10:20:27;;;;;;;4.90;2.60;;;22.40;99.90;;;;;;5035264;28;20229;-48
2023/06/10 10:22:58;;;;;;;6.80;3.07;;;22.50;99.90;;;;;;5017304;28;20753;-54
2023/06/10 10:25:28;;;;;;;8.83;2.67;;;22.60;99.90;;;;;;5033388;28;20238;-52
2023/06/10 10:27:59;;;;;;;4.63;3.03;;;22.70;99.90;;;;;;5040903;28;20597;-55
2023/06/10 10:30:28;;;;;;;4.93;2.83;;;22.70;99.90;;;;;;5037205;28;20203;-55
2023/06/10 10:32:59;;;;;;;6.37;3.40;;;22.70;99.90;;;;;;5041793;28;20220;-55
2023/06/10 10:35:26;;;;;;;4.50;2.77;;;22.70;99.90;;;;;;5037467;28;20245;-54
2023/06/10 10:37:54;;;;;;;4.28;2.72;;;22.70;99.90;;;;;;5005610;28;20731;-52
2023/06/10 10:40:23;;;;;;;6.07;2.50;;;22.90;99.90;;;;;;5037735;28;20195;-52
2023/06/10 10:42:50;;;;;;;7.15;2.67;;;23.10;99.90;;;;;;5038390;28;20665;-51
2023/06/10 10:45:17;;;;;;;7.10;2.88;;;23.20;99.90;;;;;;5033230;28;20316;-52
2023/06/10 10:47:46;;;;;;;5.50;3.08;;;23.30;99.90;;;;;;5044565;28;20647;-52
2023/06/10 10:50:17;;;;;;;11.35;3.67;;;23.30;99.90;;;;;;5035363;28;20273;-51
2023/06/10 10:52:55;;;;;;;5.18;2.67;;;23.30;99.90;;;;;;5020177;28;20215;-49
2023/06/10 10:55:24;;;;;;;13.50;2.97;;;23.40;99.90;;;;;;5035330;28;20206;-49
2023/06/10 10:57:58;;;;;;;4.18;2.30;;;23.40;99.90;;;;;;5036225;28;20228;-51
2023/06/10 11:00:32;;;;;;;8.68;2.65;;;23.40;99.90;;;;;;5040669;28;20187;-53
2023/06/10 11:03:05;;;;;;;7.68;3.53;;;23.40;99.90;;;;;;5031468;28;20207;-52
2023/06/10 11:05:37;;;;;;;6.88;3.15;;;23.40;99.90;;;;;;5041401;28;20198;-50
2023/06/10 11:08:04;;;;;;;9.35;2.80;;;23.40;99.90;;;;;;5017965;28;20223;-52
2023/06/10 11:10:33;;;;;;;10.93;2.78;;;23.50;99.90;;;;;;5038276;28;20261;-51
2023/06/10 11:13:00;;;;;;;7.53;2.90;;;23.60;99.90;;;;;;5026394;28;20423;-55
2023/06/10 11:15:28;;;;;;;7.32;3.05;;;23.70;99.90;;;;;;5030505;28;20231;-50
2023/06/10 11:18:15;;;;;;;3.60;2.70;;;23.70;99.90;;;;;;5029981;28;20628;-54
2023/06/10 11:21:00;;;;;;;7.82;3.67;;;23.80;99.90;;;;;;5040861;28;20253;-51
2023/06/10 11:23:43;;;;;;;5.82;3.40;;;24.00;99.90;;;;;;5021842;28;22147;-48
2023/06/10 11:26:16;;;;;;;4.30;2.80;;;24.20;99.90;;;;;;5025757;28;20737;-54
2023/06/10 11:28:58;;;;;;;8.18;3.47;;;24.20;99.90;;;;;;5035187;28;20231;-51
2023/06/10 11:31:26;;;;;;;4.55;2.80;;;24.10;99.90;;;;;;5037899;28;20214;-53
2023/06/10 11:33:55;;;;;;;7.72;3.10;;;24.10;99.90;;;;;;5034736;28;20203;-53
2023/06/10 11:36:22;;;;;;;4.88;2.90;;;24.20;99.90;;;;;;5036571;28;21020;-55
2023/06/10 11:38:50;;;;;;;4.82;2.85;;;24.20;99.90;;;;;;5039621;28;20212;-53
2023/06/10 11:41:19;;;;;;;6.80;3.45;;;24.20;99.90;;;;;;5016892;28;20198;-53
2023/06/10 11:43:46;;;;;;;5.85;2.97;;;24.20;99.90;;;;;;5024243;28;20199;-54
2023/06/10 11:46:14;;;;;;;4.60;2.85;;;24.30;99.90;;;;;;5042796;28;20201;-55
2023/06/10 11:48:50;;;;;;;5.43;2.72;;;24.50;99.90;;;;;;5019089;28;20313;-53
2023/06/10 11:51:17;;;;;;;6.10;3.08;;;24.50;99.90;;;;;;5036468;28;20187;-53
2023/06/10 11:53:45;;;;;;;7.75;3.05;;;24.70;99.90;;;;;;5032382;28;20195;-55
2023/06/10 11:56:12;;;;;;;4.63;2.97;;;24.80;99.90;;;;;;5013692;28;20746;-53
2023/06/10 11:58:45;;;;;;;7.38;3.17;;;24.80;99.90;;;;;;5032799;28;20260;-54
2023/06/10 12:01:21;;;;;;;7.03;2.85;;;24.80;99.90;;;;;;5036545;28;20290;-50
2023/06/10 12:03:48;;;;;;;9.85;3.38;;;24.80;99.90;;;;;;5033085;28;20418;-51
2023/06/10 12:06:15;;;;;;;4.40;2.78;;;24.90;99.50;;;;;;5034493;28;20211;-51
2023/06/10 12:08:43;;;;;;;6.50;3.10;;;24.90;99.20;;;;;;5030046;28;20227;-53
2023/06/10 12:11:10;;;;;;;5.05;2.90;;;24.90;99.60;;;;;;5012224;28;20282;-47
2023/06/10 12:13:37;;;;;;;7.35;2.95;;;25.00;99.60;;;;;;5023380;28;20661;-54
2023/06/10 12:16:09;;;;;;;5.15;2.85;;;25.20;99.40;;;;;;5044862;28;20211;-52
2023/06/10 12:18:36;;;;;;;7.25;3.22;;;25.40;98.50;;;;;;5046188;28;20207;-52
2023/06/10 12:21:03;;;;;;;3.13;2.72;;;25.40;98.40;;;;;;5030282;28;20215;-53
2023/06/10 12:23:30;;;;;;;6.50;3.63;;;25.50;98.30;;;;;;5038233;28;20222;-53
2023/06/10 12:25:58;;;;;;;5.38;3.72;;;25.50;97.90;;;;;;5035476;28;20232;-53
2023/06/10 12:28:26;;;;;;;9.90;3.30;;;25.50;98.10;;;;;;5027154;28;20300;-53
2023/06/10 12:31:06;;;;;;;6.45;3.15;;;25.60;97.90;;;;;;5039721;28;20227;-49
2023/06/10 12:33:35;;;;;;;5.00;2.90;;;25.80;97.50;;;;;;5045318;28;20268;-54
2023/06/10 12:36:02;;;;;;;9.38;2.88;;;25.90;97.40;;;;;;5026749;28;20222;-52
2023/06/10 12:38:28;;;;;;;8.63;3.28;;;26.00;97.00;;;;;;5041683;28;20226;-51
2023/06/10 12:41:02;;;;;;;4.63;3.03;;;26.10;97.10;;;;;;5044259;28;20713;-52
2023/06/10 12:43:29;;;;;;;8.05;3.25;;;26.30;96.80;;;;;;5018594;28;20454;-53
2023/06/10 12:45:55;;;;;;;4.25;2.83;;;26.50;96.30;;;;;;5039640;28;20675;-52
2023/06/10 12:48:24;;;;;;;4.32;2.65;;;26.60;95.90;;;;;;5038691;28;20945;-49
2023/06/10 12:50:54;;;;;;;4.15;2.50;;;;;;;;;;5037208;28;20207;-53
2023/06/10 12:53:22;;;;;;;7.55;2.83;;;27.00;94.90;;;;;;5040929;28;20195;-53